QFA45 YMML-YMAV
Flight info
| Callsign | QFA45 |
|---|---|
| Flight time | 0h 11m |
| Altitude | 10000 |
| Route | ML W15 AV |
| Aircraft | B738/M-SDE2E3FGHIRWXY/LB1 |
Departure
| Time | 2026-04-14 04:53 |
|---|---|
| Airport | Melbourne Airport (YMML) |
Arrival
| Time | 2026-04-14 05:04 |
|---|---|
| Airport | Melbourne Avalon International Airport (YMAV) |
| Time | Latitude | Longitude | Altitude | Speed | Heading |
|---|---|---|---|---|---|
| 2026-04-14 04:28 | -37.67264 | 144.84659 | 389 ft | 0 kts | 172° |
| 2026-04-14 04:41 | -37.67263 | 144.84659 | 389 ft | 2 kts | 172° |
| 2026-04-14 04:41 | -37.67239 | 144.84656 | 390 ft | 4 kts | 181° |
| 2026-04-14 04:42 | -37.67212 | 144.84661 | 391 ft | 4 kts | 203° |
| 2026-04-14 04:42 | -37.67194 | 144.84678 | 392 ft | 4 kts | 256° |
| 2026-04-14 04:42 | -37.67193 | 144.84684 | 392 ft | 1 kts | 264° |
| 2026-04-14 04:45 | -37.67194 | 144.84682 | 392 ft | 1 kts | 265° |
| 2026-04-14 04:45 | -37.67196 | 144.84654 | 391 ft | 6 kts | 263° |
| 2026-04-14 04:45 | -37.67202 | 144.84587 | 390 ft | 9 kts | 263° |
| 2026-04-14 04:46 | -37.67209 | 144.84498 | 388 ft | 11 kts | 282° |
| 2026-04-14 04:46 | -37.67199 | 144.84402 | 387 ft | 12 kts | 267° |
| 2026-04-14 04:46 | -37.67198 | 144.84310 | 386 ft | 7 kts | 289° |
| 2026-04-14 04:46 | -37.67163 | 144.84266 | 386 ft | 7 kts | 334° |
| 2026-04-14 04:47 | -37.67115 | 144.84253 | 388 ft | 7 kts | 351° |
| 2026-04-14 04:47 | -37.67067 | 144.84244 | 390 ft | 7 kts | 352° |
| 2026-04-14 04:47 | -37.67020 | 144.84236 | 391 ft | 7 kts | 352° |
| 2026-04-14 04:47 | -37.66990 | 144.84231 | 392 ft | 7 kts | 353° |
| 2026-04-14 04:48 | -37.66943 | 144.84222 | 391 ft | 7 kts | 348° |
| 2026-04-14 04:48 | -37.66864 | 144.84207 | 394 ft | 11 kts | 351° |
| 2026-04-14 04:48 | -37.66810 | 144.84196 | 399 ft | 13 kts | 352° |
| 2026-04-14 04:48 | -37.66718 | 144.84179 | 402 ft | 13 kts | 345° |
| 2026-04-14 04:49 | -37.66629 | 144.84163 | 405 ft | 13 kts | 350° |
| 2026-04-14 04:49 | -37.66579 | 144.84152 | 407 ft | 1 kts | 351° |
| 2026-04-14 04:49 | -37.66570 | 144.84151 | 407 ft | 2 kts | 352° |
| 2026-04-14 04:49 | -37.66537 | 144.84174 | 409 ft | 15 kts | 57° |
| 2026-04-14 04:50 | -37.66525 | 144.84312 | 411 ft | 16 kts | 83° |
| 2026-04-14 04:50 | -37.66509 | 144.84446 | 412 ft | 15 kts | 82° |
| 2026-04-14 04:50 | -37.66494 | 144.84575 | 413 ft | 15 kts | 82° |
| 2026-04-14 04:50 | -37.66476 | 144.84698 | 409 ft | 14 kts | 66° |
| 2026-04-14 04:51 | -37.66425 | 144.84768 | 412 ft | 0 kts | 27° |
| 2026-04-14 04:52 | -37.66395 | 144.84782 | 409 ft | 10 kts | 19° |
| 2026-04-14 04:52 | -37.66319 | 144.84787 | 411 ft | 12 kts | 356° |
| 2026-04-14 04:52 | -37.66242 | 144.84765 | 411 ft | 11 kts | 327° |
| 2026-04-14 04:52 | -37.66217 | 144.84680 | 416 ft | 9 kts | 263° |
| 2026-04-14 04:53 | -37.66217 | 144.84651 | 407 ft | 0 kts | 278° |
| 2026-04-14 04:53 | -37.66215 | 144.84633 | 416 ft | 20 kts | 273° |
| 2026-04-14 04:53 | -37.66177 | 144.83927 | 414 ft | 139 kts | 271° |
| 2026-04-14 04:53 | -37.66144 | 144.82447 | 1231 ft | 175 kts | 269° |
| 2026-04-14 04:54 | -37.65968 | 144.81001 | 3062 ft | 167 kts | 279° |
| 2026-04-14 04:54 | -37.65835 | 144.79457 | 4180 ft | 188 kts | 272° |
| 2026-04-14 04:54 | -37.65811 | 144.77703 | 4752 ft | 215 kts | 262° |
| 2026-04-14 04:54 | -37.66491 | 144.75959 | 4968 ft | 227 kts | 231° |
| 2026-04-14 04:55 | -37.67537 | 144.74488 | 4999 ft | 230 kts | 232° |
| 2026-04-14 04:55 | -37.68538 | 144.72890 | 5007 ft | 229 kts | 235° |
| 2026-04-14 04:55 | -37.69446 | 144.71226 | 4874 ft | 229 kts | 238° |
| 2026-04-14 04:55 | -37.70264 | 144.69554 | 4641 ft | 222 kts | 241° |
| 2026-04-14 04:56 | -37.71095 | 144.67923 | 4422 ft | 219 kts | 231° |
| 2026-04-14 04:56 | -37.72182 | 144.66622 | 4253 ft | 218 kts | 224° |
| 2026-04-14 04:56 | -37.73357 | 144.65358 | 4045 ft | 221 kts | 223° |
| 2026-04-14 04:56 | -37.74518 | 144.64112 | 3885 ft | 222 kts | 224° |
| 2026-04-14 04:57 | -37.75694 | 144.62833 | 3717 ft | 222 kts | 224° |
| 2026-04-14 04:57 | -37.76854 | 144.61562 | 3582 ft | 218 kts | 224° |
| 2026-04-14 04:57 | -37.77879 | 144.60426 | 3475 ft | 215 kts | 224° |
| 2026-04-14 04:57 | -37.78993 | 144.59185 | 3380 ft | 213 kts | 225° |
| 2026-04-14 04:58 | -37.80100 | 144.57946 | 3325 ft | 211 kts | 225° |
| 2026-04-14 04:58 | -37.81207 | 144.56703 | 3177 ft | 211 kts | 225° |
| 2026-04-14 04:58 | -37.82269 | 144.55510 | 3052 ft | 199 kts | 225° |
| 2026-04-14 04:58 | -37.83264 | 144.54390 | 2982 ft | 185 kts | 225° |
| 2026-04-14 04:59 | -37.84195 | 144.53342 | 2967 ft | 171 kts | 225° |
| 2026-04-14 04:59 | -37.85061 | 144.52365 | 2964 ft | 166 kts | 225° |
| 2026-04-14 04:59 | -37.85926 | 144.51387 | 2972 ft | 167 kts | 226° |
| 2026-04-14 04:59 | -37.86788 | 144.50418 | 2970 ft | 164 kts | 223° |
| 2026-04-14 05:00 | -37.87855 | 144.49866 | 2963 ft | 170 kts | 196° |
| 2026-04-14 05:00 | -37.88983 | 144.49493 | 2779 ft | 167 kts | 202° |
| 2026-04-14 05:00 | -37.90115 | 144.49177 | 2567 ft | 166 kts | 195° |
| 2026-04-14 05:00 | -37.91229 | 144.48965 | 2359 ft | 161 kts | 194° |
| 2026-04-14 05:01 | -37.92317 | 144.48774 | 2126 ft | 152 kts | 194° |
| 2026-04-14 05:01 | -37.93305 | 144.48604 | 1944 ft | 138 kts | 196° |
| 2026-04-14 05:01 | -37.94232 | 144.48443 | 1751 ft | 129 kts | 197° |
| 2026-04-14 05:01 | -37.95100 | 144.48290 | 1582 ft | 125 kts | 195° |
| 2026-04-14 05:02 | -37.95965 | 144.48138 | 1423 ft | 126 kts | 197° |
| 2026-04-14 05:02 | -37.96833 | 144.47985 | 1257 ft | 126 kts | 195° |
| 2026-04-14 05:02 | -37.97660 | 144.47845 | 1108 ft | 113 kts | 195° |
| 2026-04-14 05:02 | -37.98459 | 144.47683 | 943 ft | 117 kts | 198° |
| 2026-04-14 05:03 | -37.99277 | 144.47560 | 770 ft | 117 kts | 191° |
| 2026-04-14 05:03 | -38.00099 | 144.47487 | 633 ft | 120 kts | 190° |
| 2026-04-14 05:03 | -38.00953 | 144.47319 | 459 ft | 125 kts | 195° |
| 2026-04-14 05:03 | -38.01812 | 144.47109 | 306 ft | 130 kts | 197° |
| 2026-04-14 05:04 | -38.02709 | 144.46955 | 95 ft | 127 kts | 193° |
| 2026-04-14 05:04 | -38.03515 | 144.46805 | 43 ft | 103 kts | 184° |
| 2026-04-14 05:04 | -38.04086 | 144.46710 | 41 ft | 62 kts | 188° |
| 2026-04-14 05:04 | -38.04415 | 144.46655 | 42 ft | 25 kts | 186° |
| 2026-04-14 05:05 | -38.04583 | 144.46633 | 41 ft | 22 kts | 185° |
| 2026-04-14 05:05 | -38.04621 | 144.46645 | 42 ft | 5 kts | 141° |
| 2026-04-14 05:05 | -38.04633 | 144.46683 | 42 ft | 5 kts | 98° |
| 2026-04-14 05:05 | -38.04638 | 144.46736 | 42 ft | 7 kts | 97° |
| 2026-04-14 05:06 | -38.04636 | 144.46818 | 43 ft | 5 kts | 58° |
| 2026-04-14 05:06 | -38.04594 | 144.46842 | 42 ft | 8 kts | 5° |
| 2026-04-14 05:06 | -38.04478 | 144.46862 | 40 ft | 32 kts | 7° |
| 2026-04-14 05:06 | -38.03879 | 144.46954 | 38 ft | 123 kts | 5° |
| 2026-04-14 05:07 | -38.03431 | 144.47036 | 41 ft | 23 kts | 11° |
| 2026-04-14 05:07 | -38.03312 | 144.47080 | 39 ft | 18 kts | 34° |
| 2026-04-14 05:07 | -38.03222 | 144.47179 | 41 ft | 17 kts | 52° |
| 2026-04-14 05:07 | -38.03141 | 144.47287 | 40 ft | 17 kts | 31° |
| 2026-04-14 05:08 | -38.03032 | 144.47332 | 40 ft | 16 kts | 4° |
| 2026-04-14 05:08 | -38.02923 | 144.47351 | 40 ft | 16 kts | 7° |
| 2026-04-14 05:08 | -38.02823 | 144.47355 | 40 ft | 12 kts | 335° |
| 2026-04-14 05:08 | -38.02790 | 144.47307 | 40 ft | 7 kts | 314° |
| 2026-04-14 05:09 | -38.02776 | 144.47302 | 40 ft | 1 kts | 5° |
| 2026-04-14 05:09 | -38.02767 | 144.47306 | 40 ft | 2 kts | 19° |
| 2026-04-14 05:09 | -38.02741 | 144.47313 | 40 ft | 6 kts | 8° |
| 2026-04-14 05:09 | -38.02716 | 144.47319 | 39 ft | 0 kts | 11° |